Weather at Yaoqiang Airport

Public forecast

Using degrees Celsius for public forecast. Weather courtesy of forecast.io.

Current aviation weather report (METAR) for Yaoqiang Airport

Report is more than 6 hours old.

Retrieved 2021/06/14 17:38 UTC (2 days ago):

ZSJN 141738Z 02003MPS 1000 R01/P2000U BR OVC030 24/24 Q0996 NOSIG

Aviation forecast (TAF) for Yaoqiang Airport

Forecast is more than 12 hours old.

Retrieved 2021/06/08 12:09 UTC (9 days ago):

TAF ZSJN 080909Z 0812/0912 04003MPS 3500 BR NSC TX33/0906Z TN23/0821Z